KWST/WST METAR and TAF weather

Enter ICAO airport designator
Station Type Date Time Source
KWST METAR 2019/07/18 11:23 UTC NOAA

KWST 181123Z AUTO 25003KT 10SM BKN004 BKN008 OVC055 23/23 A2994 RMK AO2 RAE02 CIG 003V008 P0000 T02330228


Station Type Date Time Source
KWST Decoded METAR 2019/07/18 11:23 UTC NOAA

WESTERLY STATE AIRPORT, RI, United States (KWST) 41-21N 071-48W 21M
Jul 18, 2019 - 07:23 AM EDT / 2019.07.18 1123 UTC
Wind: from the WSW (250 degrees) at 3 MPH (3 KT):0
Visibility: 10 mile(s):0
Sky conditions: overcast
Precipitation last hour: A trace
Temperature: 73.9 F (23.3 C)
Dew Point: 73.0 F (22.8 C)
Relative Humidity: 97%
Pressure (altimeter): 29.94 in. Hg (1013 hPa)
ob: KWST 181123Z AUTO 25003KT 10SM BKN004 BKN008 OVC055 23/23 A2994 RMK AO2 RAE02 CIG 003V008 P0000 T02330228
cycle: 11

Station Type Date Time Source
KWST TAF UTC NOAA

Error!

Example: see airport list